createdAt,value
2018-07-24T00:00:11.727Z,67.755127
2018-07-24T00:01:27.664Z,67.883301
2018-07-24T00:02:43.611Z,68.054199
2018-07-24T00:03:59.505Z,67.785645
2018-07-24T00:05:15.439Z,67.785645
2018-07-24T00:06:31.391Z,67.449951
2018-07-24T00:07:47.327Z,67.584229
2018-07-24T00:09:03.216Z,67.687988
2018-07-24T00:10:19.110Z,67.486572
2018-07-24T00:11:35.022Z,67.584229
2018-07-24T00:12:50.931Z,67.785645
2018-07-24T00:14:06.829Z,67.486572
2018-07-24T00:15:22.711Z,67.382812
2018-07-24T00:16:38.635Z,67.382812
2018-07-24T00:17:54.533Z,67.382812
2018-07-24T00:19:10.409Z,67.584229
2018-07-24T00:20:26.291Z,67.584229
2018-07-24T00:21:42.187Z,67.584229
2018-07-24T00:22:58.116Z,67.687988
2018-07-24T00:24:14.048Z,67.486572
2018-07-24T00:25:29.955Z,67.486572
2018-07-24T00:26:45.836Z,67.382812
2018-07-24T00:28:01.758Z,67.486572
2018-07-24T00:29:17.640Z,67.181396
2018-07-24T00:30:34.488Z,67.181396
2018-07-24T00:31:50.355Z,67.486572
2018-07-24T00:33:06.264Z,67.285156
2018-07-24T00:34:22.175Z,67.486572
2018-07-24T00:35:38.053Z,67.785645
2018-07-24T00:36:53.957Z,67.584229
2018-07-24T00:38:09.890Z,67.816162
2018-07-24T00:39:25.801Z,67.816162
2018-07-24T00:40:41.656Z,68.017578
2018-07-24T00:41:57.531Z,68.017578
2018-07-24T00:43:13.430Z,67.919922
2018-07-24T00:44:29.325Z,68.017578
2018-07-24T00:45:45.247Z,67.919922
2018-07-24T00:47:01.111Z,68.017578
2018-07-24T00:48:17.030Z,67.919922
2018-07-24T00:49:32.907Z,67.919922
2018-07-24T00:50:48.826Z,68.621826
2018-07-24T00:52:05.686Z,69.75708
2018-07-24T00:53:21.555Z,70.257568
2018-07-24T00:54:37.442Z,70.697021
2018-07-24T00:55:53.398Z,70.996094
2018-07-24T00:57:09.296Z,70.996094
2018-07-24T00:58:25.160Z,70.996094
2018-07-24T00:59:41.109Z,70.458984
2018-07-24T01:00:56.977Z,70.159912
2018-07-24T01:02:12.892Z,70.361328
2018-07-24T01:03:28.776Z,70.794678
2018-07-24T01:04:44.675Z,70.892334
2018-07-24T01:06:00.617Z,70.562744
2018-07-24T01:07:16.454Z,70.257568
2018-07-24T01:08:32.378Z,69.958496
2018-07-24T01:09:48.233Z,70.056152
2018-07-24T01:11:04.142Z,70.056152
2018-07-24T01:12:20.009Z,70.056152
2018-07-24T01:13:35.888Z,69.958496
2018-07-24T01:14:51.784Z,70.056152
2018-07-24T01:16:07.680Z,70.257568
2018-07-24T01:17:23.557Z,70.593262
2018-07-24T01:18:39.427Z,70.593262
2018-07-24T01:19:55.334Z,70.458984
2018-07-24T01:21:11.234Z,70.159912
2018-07-24T01:22:27.140Z,70.361328
2018-07-24T01:23:43.063Z,70.361328
2018-07-24T01:24:58.941Z,70.697021
2018-07-24T01:26:14.826Z,70.458984
2018-07-24T01:27:30.759Z,70.159912
2018-07-24T01:28:46.657Z,70.593262
2018-07-24T01:30:02.539Z,70.495605
2018-07-24T01:31:18.406Z,70.257568
2018-07-24T01:32:34.319Z,70.159912
2018-07-24T01:33:50.254Z,70.495605
2018-07-24T01:35:06.164Z,70.697021
2018-07-24T01:36:22.018Z,70.996094
2018-07-24T01:37:37.930Z,71.429443
2018-07-24T01:38:53.854Z,71.130371
2018-07-24T01:40:09.741Z,71.026611
2018-07-24T01:41:26.617Z,71.228027
2018-07-24T01:42:42.516Z,70.928955
2018-07-24T01:43:58.433Z,70.825195
2018-07-24T01:45:14.325Z,70.727539
2018-07-24T01:46:30.229Z,70.526123
2018-07-24T01:47:46.132Z,70.19043
2018-07-24T01:49:02.005Z,70.294189
2018-07-24T01:50:17.867Z,70.227051
2018-07-24T01:51:34.778Z,70.825195
2018-07-24T01:52:50.676Z,70.825195
2018-07-24T01:54:06.611Z,70.727539
2018-07-24T01:55:22.484Z,70.495605
2018-07-24T01:56:38.449Z,70.19043
2018-07-24T01:57:54.334Z,69.989014
2018-07-24T01:59:10.252Z,69.787598
2018-07-24T02:00:26.174Z,69.891357
2018-07-24T02:01:42.085Z,70.092773
2018-07-24T02:02:57.987Z,70.428467
2018-07-24T02:04:13.876Z,70.227051
2018-07-24T02:05:29.773Z,70.727539
2018-07-24T02:06:45.672Z,70.428467
2018-07-24T02:08:01.577Z,70.227051
2018-07-24T02:09:17.499Z,70.227051
2018-07-24T02:10:33.440Z,69.891357
2018-07-24T02:11:49.327Z,70.227051
2018-07-24T02:13:05.201Z,70.428467
2018-07-24T02:14:21.266Z,70.324707
2018-07-24T02:15:37.137Z,70.428467
2018-07-24T02:16:53.060Z,70.227051
2018-07-24T02:18:09.003Z,70.324707
2018-07-24T02:19:24.856Z,70.324707
2018-07-24T02:20:40.750Z,70.227051
2018-07-24T02:22:14.566Z,70.324707
2018-07-24T02:23:30.489Z,70.526123
2018-07-24T02:24:46.448Z,70.324707
2018-07-24T02:26:02.340Z,70.629883
2018-07-24T02:27:18.218Z,70.428467
2018-07-24T02:28:34.078Z,70.428467
2018-07-24T02:29:50.013Z,70.324707
2018-07-24T02:31:05.879Z,70.324707
2018-07-24T02:32:21.773Z,70.025635
2018-07-24T02:33:37.663Z,70.025635
2018-07-24T02:34:53.567Z,69.921875
2018-07-24T02:36:09.449Z,70.123291
2018-07-24T02:37:25.343Z,70.123291
2018-07-24T02:38:41.236Z,70.227051
2018-07-24T02:39:57.145Z,70.324707
2018-07-24T02:41:13.032Z,70.428467
2018-07-24T02:42:28.928Z,70.562744
2018-07-24T02:43:44.808Z,70.76416
2018-07-24T02:45:00.713Z,70.6604
2018-07-24T02:46:16.635Z,70.458984
2018-07-24T02:47:32.492Z,70.562744
2018-07-24T02:48:48.377Z,70.562744
2018-07-24T02:50:04.276Z,70.361328
2018-07-24T02:51:20.261Z,70.562744
2018-07-24T02:52:36.161Z,70.361328
2018-07-24T02:53:52.045Z,70.025635
2018-07-24T02:55:07.944Z,69.921875
2018-07-24T02:56:23.837Z,70.025635
2018-07-24T02:57:39.747Z,70.025635
2018-07-24T02:58:55.615Z,69.921875
2018-07-24T03:00:11.577Z,70.361328
2018-07-24T03:01:27.488Z,70.76416
2018-07-24T03:02:43.379Z,70.458984
2018-07-24T03:03:59.245Z,70.6604
2018-07-24T03:05:15.154Z,70.959473
2018-07-24T03:06:31.092Z,70.6604
2018-07-24T03:07:46.973Z,70.6604
2018-07-24T03:09:02.872Z,70.861816
2018-07-24T03:10:18.806Z,70.861816
2018-07-24T03:11:34.689Z,70.892334
2018-07-24T03:12:50.574Z,70.861816
2018-07-24T03:14:06.472Z,70.6604
2018-07-24T03:15:22.362Z,70.6604
2018-07-24T03:16:38.251Z,70.562744
2018-07-24T03:17:54.150Z,70.257568
2018-07-24T03:19:10.082Z,70.361328
2018-07-24T03:20:25.985Z,70.562744
2018-07-24T03:21:41.860Z,70.76416
2018-07-24T03:22:57.765Z,70.562744
2018-07-24T03:24:13.659Z,70.562744
2018-07-24T03:25:29.578Z,70.458984
2018-07-24T03:26:45.481Z,70.6604
2018-07-24T03:28:01.432Z,71.19751
2018-07-24T03:29:17.352Z,71.19751
2018-07-24T03:30:33.271Z,71.09375
2018-07-24T03:31:49.166Z,71.09375
2018-07-24T03:33:05.050Z,71.295166
2018-07-24T03:34:20.905Z,71.600342
2018-07-24T03:35:36.831Z,71.398926
2018-07-24T03:36:52.745Z,70.861816
2018-07-24T03:38:08.665Z,70.76416
2018-07-24T03:39:24.582Z,70.76416
2018-07-24T03:40:40.487Z,70.76416
2018-07-24T03:41:56.378Z,70.861816
2018-07-24T03:43:12.262Z,70.861816
2018-07-24T03:44:28.138Z,70.861816
2018-07-24T03:45:44.047Z,71.063232
2018-07-24T03:46:59.951Z,71.19751
2018-07-24T03:48:15.838Z,71.398926
2018-07-24T03:49:31.745Z,71.09375
2018-07-24T03:50:47.647Z,71.19751
2018-07-24T03:52:03.539Z,71.496582
2018-07-24T03:53:19.456Z,71.19751
2018-07-24T03:54:35.349Z,71.19751
2018-07-24T03:55:51.238Z,71.496582
2018-07-24T03:57:07.127Z,71.697998
2018-07-24T03:58:22.992Z,71.899414
2018-07-24T03:59:38.889Z,71.600342
2018-07-24T04:00:54.853Z,71.398926
2018-07-24T04:02:10.856Z,71.600342
2018-07-24T04:03:26.727Z,71.600342
2018-07-24T04:04:42.665Z,71.600342
2018-07-24T04:05:58.597Z,71.600342
2018-07-24T04:07:14.520Z,71.801758
2018-07-24T04:08:30.418Z,71.801758
2018-07-24T04:09:46.292Z,71.496582
2018-07-24T04:11:02.193Z,71.19751
2018-07-24T04:12:18.140Z,71.19751
2018-07-24T04:13:34.092Z,71.496582
2018-07-24T04:14:49.986Z,71.295166
2018-07-24T04:16:05.919Z,71.09375
2018-07-24T04:17:21.838Z,71.09375
2018-07-24T04:18:37.730Z,70.996094
2018-07-24T04:19:53.647Z,70.892334
2018-07-24T04:21:09.543Z,70.76416
2018-07-24T04:22:25.442Z,70.6604
2018-07-24T04:23:41.336Z,70.76416
2018-07-24T04:24:57.230Z,70.6604
2018-07-24T04:26:13.132Z,70.562744
2018-07-24T04:27:29.015Z,70.6604
2018-07-24T04:28:44.954Z,70.76416
2018-07-24T04:30:00.823Z,70.6604
2018-07-24T04:31:16.708Z,70.6604
2018-07-24T04:32:32.602Z,70.6604
2018-07-24T04:33:48.542Z,70.76416
2018-07-24T04:35:04.463Z,70.257568
2018-07-24T04:36:20.425Z,70.159912
2018-07-24T04:37:36.311Z,70.361328
2018-07-24T04:38:52.239Z,70.056152
2018-07-24T04:40:08.212Z,70.056152
2018-07-24T04:41:24.099Z,70.257568
2018-07-24T04:42:39.963Z,70.159912
2018-07-24T04:43:55.860Z,69.854736
2018-07-24T04:45:11.760Z,69.854736
2018-07-24T04:46:27.647Z,69.622803
2018-07-24T04:47:43.568Z,69.519043
2018-07-24T04:48:59.502Z,69.75708
2018-07-24T04:50:15.475Z,69.720459
2018-07-24T04:51:31.373Z,69.65332
2018-07-24T04:52:47.276Z,69.854736
2018-07-24T04:54:03.258Z,69.65332
2018-07-24T04:55:19.230Z,69.854736
2018-07-24T04:56:35.113Z,70.056152
2018-07-24T04:57:50.997Z,69.65332
2018-07-24T04:59:06.892Z,69.421387
2018-07-24T05:00:22.773Z,69.018555
2018-07-24T05:01:38.693Z,69.122314
2018-07-24T05:02:54.583Z,69.219971
2018-07-24T05:04:10.541Z,69.519043
2018-07-24T05:05:26.472Z,69.219971
2018-07-24T05:06:42.354Z,68.786621
2018-07-24T05:07:58.248Z,68.682861
2018-07-24T05:09:14.166Z,68.817139
2018-07-24T05:10:30.172Z,68.817139
2018-07-24T05:11:46.045Z,68.786621
2018-07-24T05:13:01.967Z,69.018555
2018-07-24T05:14:17.956Z,69.122314
2018-07-24T05:15:33.939Z,69.219971
2018-07-24T05:16:49.943Z,68.988037
2018-07-24T05:18:05.806Z,68.988037
2018-07-24T05:19:21.698Z,69.189453
2018-07-24T05:20:37.632Z,69.085693
2018-07-24T05:21:53.523Z,68.988037
2018-07-24T05:23:09.548Z,68.988037
2018-07-24T05:24:25.454Z,68.786621
2018-07-24T05:25:41.540Z,68.652344
2018-07-24T05:26:57.383Z,68.450928
2018-07-24T05:28:13.290Z,68.249512
2018-07-24T05:29:29.199Z,68.121338
2018-07-24T05:30:45.118Z,68.450928
2018-07-24T05:32:01.048Z,68.554688
2018-07-24T05:33:16.959Z,68.652344
2018-07-24T05:34:32.869Z,68.652344
2018-07-24T05:35:48.799Z,68.652344
2018-07-24T05:37:04.737Z,68.756104
2018-07-24T05:38:20.646Z,68.554688
2018-07-24T05:39:36.599Z,68.652344
2018-07-24T05:40:52.612Z,68.652344
2018-07-24T05:42:08.546Z,68.85376
2018-07-24T05:43:24.525Z,68.42041
2018-07-24T05:44:40.478Z,68.42041
2018-07-24T05:45:56.414Z,68.31665
2018-07-24T05:47:12.380Z,68.31665
2018-07-24T05:48:28.352Z,68.31665
2018-07-24T05:49:44.229Z,68.42041
2018-07-24T05:51:00.137Z,68.621826
2018-07-24T05:52:16.064Z,68.823242
2018-07-24T05:53:31.998Z,68.719482
2018-07-24T05:54:47.886Z,68.487549
2018-07-24T05:56:03.790Z,68.487549
2018-07-24T05:57:19.705Z,68.286133
2018-07-24T05:58:35.625Z,68.084717
2018-07-24T05:59:51.505Z,67.987061
2018-07-24T06:01:07.523Z,67.785645
2018-07-24T06:02:23.411Z,67.883301
2018-07-24T06:03:39.306Z,67.687988
2018-07-24T06:04:55.199Z,67.486572
2018-07-24T06:06:11.101Z,67.382812
2018-07-24T06:07:27.039Z,67.352295
2018-07-24T06:08:42.874Z,67.254639
2018-07-24T06:09:58.835Z,67.053223
2018-07-24T06:11:14.801Z,66.949463
2018-07-24T06:12:30.680Z,67.053223
2018-07-24T06:13:46.704Z,66.851807
2018-07-24T06:15:02.595Z,66.247559
2018-07-24T06:16:18.539Z,66.247559
2018-07-24T06:17:34.440Z,66.149902
2018-07-24T06:18:50.360Z,65.820312
2018-07-24T06:20:06.275Z,65.820312
2018-07-24T06:21:22.224Z,65.014648
2018-07-24T06:22:38.128Z,65.216064
2018-07-24T06:23:54.035Z,65.216064
2018-07-24T06:25:09.946Z,64.916992
2018-07-24T06:26:25.896Z,65.014648
2018-07-24T06:27:41.814Z,64.715576
2018-07-24T06:28:57.780Z,64.61792
2018-07-24T06:30:13.707Z,64.416504
2018-07-24T06:31:29.605Z,64.117432
2018-07-24T06:32:45.488Z,64.18457
2018-07-24T06:34:01.442Z,64.086914
2018-07-24T06:35:17.328Z,63.482666
2018-07-24T06:36:33.197Z,63.38501
2018-07-24T06:37:49.134Z,63.580322
2018-07-24T06:39:05.056Z,63.183594
2018-07-24T06:40:21.006Z,63.482666
2018-07-24T06:41:36.889Z,63.482666
2018-07-24T06:42:52.782Z,63.482666
2018-07-24T06:44:08.795Z,63.482666
2018-07-24T06:45:24.649Z,63.250732
2018-07-24T06:46:40.533Z,62.95166
2018-07-24T06:47:56.458Z,63.05542
2018-07-24T06:49:12.366Z,63.05542
2018-07-24T06:50:28.278Z,62.95166
2018-07-24T06:51:44.396Z,63.153076
2018-07-24T06:53:00.103Z,63.024902
2018-07-24T06:54:16.071Z,62.62207
2018-07-24T06:55:32.054Z,62.451172
2018-07-24T06:56:47.991Z,62.554932
2018-07-24T06:58:03.929Z,62.719727
2018-07-24T06:59:19.794Z,62.524414
2018-07-24T07:00:35.822Z,62.322998
2018-07-24T07:01:51.714Z,62.322998
2018-07-24T07:03:07.627Z,62.322998
2018-07-24T07:04:23.542Z,62.121582
2018-07-24T07:05:39.469Z,61.694336
2018-07-24T07:06:55.370Z,61.291504
2018-07-24T07:08:11.282Z,61.590576
2018-07-24T07:09:27.154Z,61.694336
2018-07-24T07:10:43.053Z,61.889648
2018-07-24T07:11:59.007Z,62.164307
2018-07-24T07:13:14.984Z,61.962891
2018-07-24T07:14:30.815Z,61.663818
2018-07-24T07:15:46.711Z,61.260986
2018-07-24T07:17:02.653Z,61.260986
2018-07-24T07:18:18.592Z,61.065674
2018-07-24T07:19:34.491Z,61.260986
2018-07-24T07:20:51.400Z,61.035156
2018-07-24T07:22:07.345Z,61.035156
2018-07-24T07:23:23.286Z,60.83374
2018-07-24T07:24:39.139Z,60.632324
2018-07-24T07:25:55.052Z,60.333252
2018-07-24T07:27:10.956Z,60.235596
2018-07-24T07:28:26.853Z,60.736084
2018-07-24T07:29:42.735Z,60.632324
2018-07-24T07:30:58.680Z,60.03418
2018-07-24T07:32:14.623Z,60.137939
2018-07-24T07:33:30.484Z,59.936523
2018-07-24T07:34:46.380Z,59.606934
2018-07-24T07:36:02.300Z,58.605957
2018-07-24T07:37:18.228Z,58.306885
2018-07-24T07:38:34.137Z,59.008789
2018-07-24T07:39:49.990Z,58.911133
2018-07-24T07:41:05.915Z,59.179688
2018-07-24T07:42:21.867Z,59.179688
2018-07-24T07:43:37.757Z,58.581543
2018-07-24T07:44:53.642Z,57.781982
2018-07-24T07:46:09.537Z,57.684326
2018-07-24T07:47:25.505Z,57.983398
2018-07-24T07:48:41.408Z,58.251953
2018-07-24T07:49:57.323Z,58.251953
2018-07-24T07:51:13.254Z,58.355713
2018-07-24T07:52:29.355Z,57.855225
2018-07-24T07:53:45.159Z,57.855225
2018-07-24T07:55:01.052Z,57.556152
2018-07-24T07:56:16.958Z,57.427979
2018-07-24T07:57:32.914Z,57.226562
2018-07-24T07:58:48.876Z,56.030273
2018-07-24T08:00:04.783Z,56.030273
2018-07-24T08:01:20.662Z,56.628418
2018-07-24T08:02:36.755Z,56.732178
2018-07-24T08:03:52.520Z,56.530762
2018-07-24T08:05:08.434Z,56.628418
2018-07-24T08:06:24.345Z,56.80542
2018-07-24T08:07:40.288Z,56.506348
2018-07-24T08:08:56.240Z,56.70166
2018-07-24T08:10:12.151Z,56.304932
2018-07-24T08:11:28.079Z,56.70166
2018-07-24T08:12:43.961Z,55.609131
2018-07-24T08:13:59.925Z,55.310059
2018-07-24T08:15:15.864Z,55.279541
2018-07-24T08:16:31.817Z,54.882812
2018-07-24T08:17:47.723Z,55.383301
2018-07-24T08:19:03.657Z,54.382324
2018-07-24T08:20:19.573Z,55.010986
2018-07-24T08:21:35.473Z,55.407715
2018-07-24T08:22:51.370Z,58.795166
2018-07-24T08:25:47.975Z,60.192871
2018-07-24T08:27:03.880Z,57.171631
2018-07-24T08:28:19.824Z,56.378174
2018-07-24T08:29:35.774Z,55.383301
2018-07-24T08:30:51.699Z,54.785156
2018-07-24T08:32:07.663Z,54.882812
2018-07-24T08:33:23.578Z,55.279541
2018-07-24T08:34:39.524Z,57.147217
2018-07-24T08:35:55.392Z,58.666992
2018-07-24T08:37:11.296Z,58.868408
2018-07-24T08:38:27.222Z,59.692383
2018-07-24T08:39:43.101Z,59.893799
2018-07-24T08:40:58.998Z,59.619141
2018-07-24T08:42:14.907Z,61.114502
2018-07-24T08:43:30.859Z,60.5896
2018-07-24T08:44:46.796Z,60.290527
2018-07-24T08:46:03.743Z,60.919189
2018-07-24T08:47:19.676Z,61.61499
2018-07-24T08:48:35.647Z,61.315918
2018-07-24T08:49:51.607Z,61.712646
2018-07-24T08:51:07.554Z,62.182617
2018-07-24T08:52:23.559Z,62.054443
2018-07-24T08:53:39.738Z,60.961914
2018-07-24T08:54:55.850Z,61.05957
2018-07-24T08:56:11.352Z,61.157227
2018-07-24T08:57:27.267Z,61.553955
2018-07-24T08:58:43.195Z,61.816406
2018-07-24T08:59:59.166Z,62.213135
2018-07-24T09:01:15.084Z,62.609863
2018-07-24T09:02:30.996Z,62.213135
2018-07-24T09:03:47.003Z,62.115479
2018-07-24T09:05:02.856Z,63.238525
2018-07-24T09:06:18.786Z,62.243652
2018-07-24T09:07:34.658Z,62.243652
2018-07-24T09:08:50.572Z,61.413574
2018-07-24T09:10:06.536Z,61.315918
2018-07-24T09:11:22.455Z,61.914062
2018-07-24T09:12:38.357Z,62.011719
2018-07-24T09:13:54.285Z,62.481689
2018-07-24T09:15:10.217Z,62.384033
2018-07-24T09:16:26.177Z,62.286377
2018-07-24T09:17:42.063Z,61.853027
2018-07-24T09:18:57.953Z,62.353516
2018-07-24T09:20:13.879Z,61.05957
2018-07-24T09:21:29.764Z,61.657715
2018-07-24T09:22:45.669Z,61.529541
2018-07-24T09:24:01.713Z,60.858154
2018-07-24T09:25:17.634Z,59.765625
2018-07-24T09:26:33.575Z,59.362793
2018-07-24T09:27:50.633Z,59.063721
2018-07-24T09:29:06.380Z,59.661865
2018-07-24T09:30:22.264Z,58.868408
2018-07-24T09:31:38.176Z,57.073975
2018-07-24T09:32:54.062Z,59.564209
2018-07-24T09:34:09.981Z,58.47168
2018-07-24T09:35:25.904Z,58.172607
2018-07-24T09:36:41.853Z,58.36792
2018-07-24T09:37:57.766Z,57.940674
2018-07-24T09:39:13.665Z,58.239746
2018-07-24T09:40:29.556Z,57.519531
2018-07-24T09:41:45.461Z,57.318115
2018-07-24T09:43:01.376Z,56.695557
2018-07-24T09:44:17.323Z,56.719971
2018-07-24T09:45:33.290Z,55.627441
2018-07-24T09:46:49.217Z,55.426025
2018-07-24T09:48:05.113Z,56.121826
2018-07-24T09:49:21.016Z,56.225586
2018-07-24T09:50:37.053Z,55.529785
2018-07-24T09:51:52.945Z,57.714844
2018-07-24T09:53:08.867Z,58.709717
2018-07-24T09:54:24.802Z,61.102295
2018-07-24T09:55:40.725Z,62.420654
2018-07-24T09:56:56.667Z,62.023926
2018-07-24T09:58:12.583Z,62.225342
2018-07-24T09:59:28.579Z,61.425781
2018-07-24T10:00:44.343Z,62.023926
2018-07-24T10:02:00.310Z,62.353516
2018-07-24T10:03:16.212Z,62.95166
2018-07-24T10:04:32.187Z,63.153076
2018-07-24T10:05:49.127Z,62.854004
2018-07-24T10:07:05.059Z,62.127686
2018-07-24T10:08:20.994Z,61.395264
2018-07-24T10:09:36.886Z,60.900879
2018-07-24T10:10:52.828Z,61.395264
2018-07-24T10:12:08.711Z,61.425781
2018-07-24T10:13:24.752Z,61.230469
2018-07-24T10:14:40.543Z,62.322998
2018-07-24T10:15:56.455Z,62.097168
2018-07-24T10:17:12.315Z,61.297607
2018-07-24T10:18:27.281Z,60.900879
2018-07-24T10:19:43.190Z,60.699463
2018-07-24T10:20:59.104Z,61.529541
2018-07-24T10:22:15.087Z,61.627197
2018-07-24T10:23:30.935Z,61.92627
2018-07-24T10:24:46.810Z,62.023926
2018-07-24T10:26:02.715Z,61.627197
2018-07-24T10:27:18.638Z,61.724854
2018-07-24T10:28:34.587Z,60.50415
2018-07-24T10:29:50.494Z,60.205078
2018-07-24T10:31:06.369Z,60.302734
2018-07-24T10:32:22.271Z,60.900879
2018-07-24T10:33:38.192Z,61.102295
2018-07-24T10:34:54.083Z,61.199951
2018-07-24T10:36:09.956Z,62.097168
2018-07-24T10:37:25.851Z,63.220215
2018-07-24T10:38:41.753Z,63.018799
2018-07-24T10:39:57.665Z,62.127686
2018-07-24T10:41:13.567Z,62.39624
2018-07-24T10:42:29.451Z,61.26709
2018-07-24T10:43:45.380Z,61.468506
2018-07-24T10:45:01.339Z,62.29248
2018-07-24T10:46:17.244Z,63.317871
2018-07-24T10:47:33.148Z,62.988281
2018-07-24T10:48:50.094Z,62.493896
2018-07-24T10:50:06.043Z,61.59668
2018-07-24T10:51:22.970Z,62.591553
2018-07-24T10:52:38.865Z,62.365723
2018-07-24T10:53:54.878Z,61.834717
2018-07-24T10:55:10.881Z,60.546875
2018-07-24T10:58:07.590Z,60.943604
2018-07-24T11:01:04.725Z,62.762451
2018-07-24T11:02:21.017Z,62.860107
2018-07-24T11:06:58.727Z,63.787842
2018-07-24T11:08:14.933Z,63.586426
2018-07-24T11:11:11.537Z,63.360596
2018-07-24T11:12:27.554Z,61.535645
2018-07-24T11:13:43.568Z,62.561035
2018-07-24T11:14:59.533Z,61.566162
2018-07-24T20:21:02.243Z,50.67749
2018-07-24T20:22:18.235Z,49.383545
2018-07-24T20:23:34.208Z,49.285889
2018-07-24T20:24:50.198Z,49.285889
2018-07-24T20:26:06.132Z,49.383545
2018-07-24T20:27:22.157Z,49.383545
2018-07-24T20:28:38.135Z,49.285889
2018-07-24T20:29:54.033Z,49.383545
2018-07-24T20:31:10.048Z,49.383545
2018-07-24T20:32:26.045Z,49.383545
2018-07-24T20:33:42.002Z,49.487305
2018-07-24T20:34:57.981Z,49.487305
2018-07-24T20:36:13.897Z,49.487305
2018-07-24T20:37:30.854Z,49.487305
2018-07-24T20:38:46.841Z,49.487305
2018-07-24T20:40:02.866Z,49.487305
2018-07-24T20:42:59.468Z,49.584961
2018-07-24T20:44:15.491Z,49.609375
2018-07-24T20:45:31.490Z,49.584961
2018-07-24T20:46:47.495Z,49.707031
2018-07-24T20:48:03.510Z,49.609375
2018-07-24T20:49:19.506Z,49.707031
2018-07-24T20:50:35.452Z,49.707031
2018-07-24T20:51:51.367Z,49.804688
2018-07-24T20:53:07.548Z,49.707031
2018-07-24T20:54:23.557Z,49.707031
2018-07-24T20:55:39.575Z,49.804688
2018-07-24T20:56:55.629Z,49.804688
2018-07-24T20:58:11.660Z,49.908447
2018-07-24T20:59:27.660Z,49.908447
2018-07-24T21:00:43.610Z,49.908447
2018-07-24T21:01:59.554Z,49.908447
2018-07-24T21:03:15.533Z,49.908447
2018-07-24T21:04:31.489Z,50.006104
2018-07-24T21:05:48.482Z,49.908447
2018-07-24T21:07:07.188Z,49.908447
2018-07-24T21:08:23.167Z,49.908447
2018-07-24T21:09:39.263Z,49.908447
2018-07-24T21:10:55.270Z,49.908447
2018-07-24T21:12:11.233Z,49.804688
2018-07-24T21:13:27.168Z,49.829102
2018-07-24T21:14:43.164Z,49.829102
2018-07-24T21:15:59.145Z,49.829102
2018-07-24T21:17:15.101Z,49.829102
2018-07-24T21:18:32.039Z,49.829102
2018-07-24T21:19:47.954Z,49.829102
2018-07-24T21:21:03.959Z,49.932861
2018-07-24T21:22:19.910Z,49.932861
2018-07-24T21:23:35.850Z,49.932861
2018-07-24T21:24:51.829Z,50.030518
2018-07-24T21:26:07.828Z,50.030518
2018-07-24T21:27:23.830Z,50.030518
2018-07-24T21:28:39.738Z,49.932861
2018-07-24T21:29:55.686Z,49.932861
2018-07-24T21:31:11.636Z,50.030518
2018-07-24T21:32:27.552Z,50.030518
2018-07-24T21:33:43.505Z,50.030518
2018-07-24T21:34:59.434Z,50.030518
2018-07-24T21:36:15.434Z,49.932861
2018-07-24T21:37:31.392Z,49.932861
2018-07-24T21:38:47.296Z,50.152588
2018-07-24T21:40:03.223Z,49.731445
2018-07-24T21:41:19.202Z,49.932861
2018-07-24T21:42:35.327Z,49.951172
2018-07-24T21:43:51.139Z,49.951172
2018-07-24T21:45:06.997Z,49.829102
2018-07-24T21:46:22.902Z,49.951172
2018-07-24T21:47:38.801Z,49.853516
2018-07-24T21:48:54.721Z,50.152588
2018-07-24T21:50:10.636Z,50.054932
2018-07-24T21:51:26.533Z,49.951172
2018-07-24T21:52:42.445Z,49.951172
2018-07-24T21:53:58.470Z,49.951172
2018-07-24T21:55:14.396Z,50.054932
2018-07-24T21:56:30.333Z,50.054932
2018-07-24T21:57:46.337Z,49.853516
2018-07-24T21:59:02.315Z,49.853516
2018-07-24T22:00:18.396Z,49.755859
2018-07-24T22:01:34.272Z,49.853516
2018-07-24T22:02:50.205Z,49.853516
2018-07-24T22:04:06.321Z,49.853516
2018-07-24T22:05:22.251Z,49.853516
2018-07-24T22:06:38.245Z,49.755859
2018-07-24T22:07:54.239Z,49.755859
2018-07-24T22:09:10.235Z,49.755859
2018-07-24T22:10:26.182Z,49.755859
2018-07-24T22:11:42.105Z,49.853516
2018-07-24T22:12:58.035Z,50.079346
2018-07-24T22:14:13.974Z,50.079346
2018-07-24T22:15:30.191Z,50.177002
2018-07-24T22:16:46.155Z,50.274658
2018-07-24T22:18:02.230Z,50.079346
2018-07-24T22:19:18.346Z,50.177002
2018-07-24T22:20:34.746Z,50.079346
2018-07-24T22:21:50.896Z,50.274658
2018-07-24T22:23:06.878Z,50.177002
2018-07-24T22:24:23.647Z,50.177002
2018-07-24T22:25:39.537Z,50.079346
2018-07-24T22:26:55.468Z,50.274658
2018-07-24T22:28:11.381Z,50.378418
2018-07-24T22:29:28.266Z,50.57373
2018-07-24T22:30:44.172Z,50.476074
2018-07-24T22:32:00.065Z,50.378418
2018-07-24T22:33:15.994Z,50.378418
2018-07-24T22:34:32.048Z,50.598145
2018-07-24T22:35:48.054Z,50.799561
2018-07-24T22:37:03.998Z,50.57373
2018-07-24T22:38:19.976Z,50.57373
2018-07-24T22:39:35.912Z,50.67749
2018-07-24T22:40:51.825Z,50.57373
2018-07-24T22:42:07.827Z,50.57373
2018-07-24T22:43:23.958Z,50.67749
2018-07-24T22:44:40.731Z,50.701904
2018-07-24T22:45:56.662Z,50.67749
2018-07-24T22:47:12.591Z,50.476074
2018-07-24T22:48:29.096Z,50.701904
2018-07-24T22:51:29.637Z,50.701904
2018-07-24T22:52:45.568Z,50.701904
2018-07-24T22:54:01.497Z,50.897217
2018-07-24T22:55:17.407Z,50.799561
2018-07-24T22:56:33.302Z,51.293945
2018-07-24T22:57:49.210Z,51.593018
2018-07-24T22:59:05.081Z,51.593018
2018-07-24T23:00:20.958Z,51.696777
2018-07-24T23:01:36.849Z,51.696777
2018-07-24T23:02:52.736Z,51.696777
2018-07-24T23:04:08.594Z,51.696777
2018-07-24T23:05:24.570Z,51.696777
2018-07-24T23:06:40.514Z,52.020264
2018-07-24T23:07:56.395Z,52.020264
2018-07-24T23:09:12.415Z,52.020264
2018-07-24T23:10:28.333Z,51.916504
2018-07-24T23:11:44.264Z,51.818848
2018-07-24T23:13:00.170Z,51.916504
2018-07-24T23:14:16.042Z,52.11792
2018-07-24T23:15:31.938Z,52.020264
2018-07-24T23:16:47.802Z,52.215576
2018-07-24T23:18:03.705Z,52.416992
2018-07-24T23:19:19.639Z,52.514648
2018-07-24T23:20:35.573Z,52.319336
2018-07-24T23:21:51.485Z,52.514648
2018-07-24T23:23:07.386Z,52.514648
2018-07-24T23:24:23.297Z,52.416992
2018-07-24T23:25:39.183Z,52.514648
2018-07-24T23:26:55.098Z,52.618408
2018-07-24T23:28:11.013Z,52.618408
2018-07-24T23:29:26.940Z,52.514648
2018-07-24T23:30:42.893Z,52.618408
2018-07-24T23:31:58.748Z,53.039551
2018-07-24T23:33:14.651Z,53.143311
2018-07-24T23:34:30.530Z,53.143311
2018-07-24T23:35:46.465Z,52.941895
2018-07-24T23:37:02.377Z,52.941895
2018-07-24T23:38:18.273Z,52.941895
2018-07-24T23:39:34.155Z,52.941895
2018-07-24T23:40:50.046Z,52.941895
2018-07-24T23:42:05.917Z,53.039551
2018-07-24T23:43:21.849Z,53.265381
2018-07-24T23:44:37.720Z,53.363037
2018-07-24T23:45:53.615Z,53.466797
2018-07-24T23:47:09.507Z,53.466797
2018-07-24T23:48:25.380Z,53.790283